Time;durP1;ratioP1;P1;durP2;ratioP2;P2;SDS_P1;SDS_P2;PMS_P1;PMS_P2;Temp;Humidity;BMP_temperature;BMP_pressure;BME280_temperature;BME280_humidity;BME280_pressure;Samples;Min_cycle;Max_cycle;Signal;HPM_P1;HPM_P2
2023/04/06 00:02:13;;;;;;;9.05;4.80;;;;;;;6.11;74.00;100189.09;5073319;28;20048;-37
2023/04/06 00:04:39;;;;;;;8.65;5.50;;;;;;;6.11;74.02;100183.06;5073391;28;20093;-37
2023/04/06 00:07:05;;;;;;;7.03;4.63;;;;;;;6.09;74.44;100185.66;5074917;28;20063;-37
2023/04/06 00:09:31;;;;;;;9.15;4.50;;;;;;;6.07;74.14;100177.03;5083656;28;20036;-37
2023/04/06 00:11:57;;;;;;;8.38;4.70;;;;;;;6.05;74.76;100181.38;5089739;28;20044;-36
2023/04/06 00:14:23;;;;;;;8.18;4.97;;;;;;;5.89;74.94;100160.00;5089937;28;20495;-36
2023/04/06 00:16:50;;;;;;;7.47;4.80;;;;;;;6.03;74.97;100180.53;5086831;28;20047;-36
2023/04/06 00:19:16;;;;;;;9.80;4.78;;;;;;;5.97;75.08;100184.91;5086527;28;20052;-37
2023/04/06 00:21:42;;;;;;;10.35;5.15;;;;;;;5.96;75.29;100186.63;5070882;28;20092;-36
2023/04/06 00:24:08;;;;;;;10.38;5.38;;;;;;;5.95;75.36;100184.91;5087069;28;20039;-37
2023/04/06 00:26:34;;;;;;;9.43;4.80;;;;;;;5.94;74.76;100189.22;5070739;28;20470;-37
2023/04/06 00:29:00;;;;;;;11.73;4.70;;;;;;;5.93;75.16;100189.22;5069245;28;20127;-36
2023/04/06 00:31:26;;;;;;;20.65;5.32;;;;;;;5.58;75.30;100127.53;5070418;28;20040;-36
2023/04/06 00:33:52;;;;;;;7.82;4.97;;;;;;;5.90;75.73;100190.09;5085551;28;20046;-36
2023/04/06 00:36:18;;;;;;;7.55;4.57;;;;;;;5.85;75.38;100183.22;5082925;28;20040;-35
2023/04/06 00:38:44;;;;;;;10.35;5.53;;;;;;;5.73;75.13;100167.81;5067443;28;20062;-37
2023/04/06 00:41:11;;;;;;;8.38;4.88;;;;;;;5.85;75.10;100188.38;5074193;28;20032;-37
2023/04/06 00:43:37;;;;;;;9.43;4.90;;;;;;;5.67;75.64;100162.72;5069156;28;20059;-37
2023/04/06 00:46:03;;;;;;;9.82;5.13;;;;;;;5.55;75.70;100149.03;5069857;28;20041;-36
2023/04/06 00:48:30;;;;;;;8.05;4.50;;;;;;;5.77;75.81;100183.28;5089107;28;20044;-36
2023/04/06 00:50:57;;;;;;;7.85;4.70;;;;;;;5.77;75.82;100185.00;5085688;28;20127;-36
2023/04/06 00:53:23;;;;;;;10.82;6.03;;;;;;;5.72;76.30;100181.59;5079660;28;20400;-36
2023/04/06 00:55:51;;;;;;;9.10;5.30;;;;;;;5.67;76.18;100184.19;5088139;28;20054;-37
2023/04/06 00:58:17;;;;;;;10.18;6.10;;;;;;;5.62;76.48;100185.97;5085425;28;20053;-37
2023/04/06 01:00:49;;;;;;;9.15;5.22;;;;;;;5.62;76.64;100182.50;5093752;27;20040;-36
2023/04/06 01:03:18;;;;;;;8.25;5.18;;;;;;;5.47;76.50;100170.59;5052610;28;20060;-37
2023/04/06 01:05:44;;;;;;;10.52;6.00;;;;;;;5.57;76.53;100176.53;5068485;28;20047;-35
2023/04/06 01:08:20;;;;;;;8.07;5.13;;;;;;;5.53;76.98;100179.16;5087774;28;20109;-34
2023/04/06 01:10:47;;;;;;;10.63;5.40;;;;;;;5.36;76.47;100155.16;5071368;28;20127;-36
2023/04/06 01:13:25;;;;;;;14.52;5.65;;;;;;;5.48;76.70;100173.16;5053436;28;20042;-36
2023/04/06 01:15:58;;;;;;;10.02;5.55;;;;;;;5.41;77.03;100166.31;5085124;28;20479;-37
2023/04/06 01:18:31;;;;;;;9.65;5.80;;;;;;;5.43;77.30;100181.78;5069263;28;20045;-36
2023/04/06 01:21:17;;;;;;;9.45;5.40;;;;;;;5.41;77.30;100176.63;5085011;28;20148;-37
2023/04/06 01:23:58;;;;;;;9.18;6.00;;;;;;;5.38;77.30;100174.06;5068385;28;20052;-36
2023/04/06 01:26:32;;;;;;;12.00;5.88;;;;;;;5.36;77.41;100172.34;5035568;28;20500;-36
2023/04/06 01:29:00;;;;;;;10.38;6.22;;;;;;;5.33;77.44;100180.13;5068079;28;20071;-36
2023/04/06 01:31:28;;;;;;;12.68;5.80;;;;;;;5.15;77.76;100154.41;5078411;28;20043;-37
2023/04/06 01:33:54;;;;;;;12.45;5.88;;;;;;;5.31;77.38;100177.53;5076919;28;20036;-37
2023/04/06 01:36:23;;;;;;;10.38;5.53;;;;;;;5.31;77.34;100185.28;5068102;28;20078;-37
2023/04/06 01:38:57;;;;;;;13.90;6.72;;;;;;;5.28;78.08;100174.13;5078685;28;20048;-36
2023/04/06 01:41:31;;;;;;;10.20;6.20;;;;;;;5.27;78.28;100180.16;5051262;28;20044;-37
2023/04/06 01:43:57;;;;;;;14.88;7.28;;;;;;;5.24;78.37;100178.44;5067664;28;20055;-37
2023/04/06 01:46:26;;;;;;;;;;;;;;;5.23;78.22;100187.06;5057698;28;20067;-37
2023/04/06 01:48:52;;;;;;;9.25;5.60;;;;;;;5.18;78.24;100186.22;5061493;28;20454;-38
2023/04/06 01:51:30;;;;;;;10.27;6.03;;;;;;;5.13;78.13;100185.34;5087179;28;20167;-37
2023/04/06 01:54:01;;;;;;;10.73;5.80;;;;;;;5.09;78.59;100181.06;5071733;28;20047;-37
2023/04/06 01:56:38;;;;;;;12.25;5.35;;;;;;;5.10;78.62;100175.94;5067641;28;20040;-37
2023/04/06 01:59:17;;;;;;;;;;;;;;;5.10;78.59;100178.50;5067444;28;20036;-37
2023/04/06 02:01:43;;;;;;;8.70;5.28;;;;;;;5.06;78.94;100175.94;5084185;28;19916;-36
2023/04/06 02:04:09;;;;;;;8.93;4.90;;;;;;;5.03;78.48;100178.53;5087516;28;20054;-36
2023/04/06 02:06:35;;;;;;;9.50;4.63;;;;;;;5.02;78.84;100180.25;5071557;28;20136;-36
2023/04/06 02:09:04;;;;;;;9.35;5.10;;;;;;;5.02;78.85;100175.09;5069391;28;20515;-36
2023/04/06 02:11:30;;;;;;;10.48;5.07;;;;;;;5.00;79.07;100183.69;5080649;28;20047;-37
2023/04/06 02:13:56;;;;;;;9.23;5.22;;;;;;;4.98;78.90;100169.97;5083475;28;20040;-38
2023/04/06 02:16:46;;;;;;;8.55;5.70;;;;;;;4.95;78.99;100177.72;5086465;28;20044;-36
2023/04/06 02:19:12;;;;;;;10.27;5.35;;;;;;;4.94;78.97;100178.56;5083085;28;20040;-36
2023/04/06 02:21:37;;;;;;;8.60;5.50;;;;;;;4.93;78.72;100179.41;5070455;28;20117;-36
2023/04/06 02:24:04;;;;;;;9.50;5.47;;;;;;;4.92;78.75;100188.03;5082128;28;20136;-37
2023/04/06 02:26:29;;;;;;;8.77;4.85;;;;;;;4.90;78.93;100189.75;5069740;28;20527;-37
2023/04/06 02:28:55;;;;;;;10.73;5.35;;;;;;;4.89;79.01;100196.63;5096937;28;20051;-36
2023/04/06 02:31:21;;;;;;;7.78;5.25;;;;;;;4.88;78.99;100189.75;5088466;28;20073;-36
2023/04/06 02:33:48;;;;;;;9.30;5.25;;;;;;;4.85;79.32;100197.50;5087110;28;20105;-37
2023/04/06 02:36:16;;;;;;;9.32;4.70;;;;;;;4.82;79.49;100202.63;5073265;28;20183;-36
2023/04/06 02:38:42;;;;;;;6.85;4.80;;;;;;;4.80;79.47;100199.22;5089159;28;20089;-37
2023/04/06 02:41:08;;;;;;;6.90;4.60;;;;;;;4.62;79.21;100176.09;5068302;28;20113;-37
2023/04/06 02:43:34;;;;;;;9.27;4.50;;;;;;;4.78;79.41;100205.22;5088236;28;20519;-37
2023/04/06 02:46:06;;;;;;;8.23;5.28;;;;;;;4.78;79.62;100206.09;5069957;28;20035;-37
2023/04/06 02:48:36;;;;;;;6.97;4.55;;;;;;;4.79;79.58;100209.53;5071929;28;20037;-36
2023/04/06 02:51:03;;;;;;;12.57;5.88;;;;;;;4.80;79.63;100208.66;5083643;28;20086;-37
2023/04/06 02:53:29;;;;;;;9.32;5.13;;;;;;;4.59;79.52;100170.97;5083876;28;20044;-37
2023/04/06 02:55:56;;;;;;;8.60;4.80;;;;;;;4.60;79.77;100182.97;5082764;28;20117;-36
2023/04/06 02:58:26;;;;;;;8.48;4.88;;;;;;;4.78;80.00;100215.53;5090796;28;20058;-36
2023/04/06 03:00:55;;;;;;;6.90;4.55;;;;;;;4.74;79.68;100209.53;5103796;28;20079;-37
2023/04/06 03:03:21;;;;;;;8.10;4.97;;;;;;;4.76;79.82;100219.84;5098565;28;20060;-37
2023/04/06 03:05:48;;;;;;;10.15;5.18;;;;;;;4.75;79.59;100219.00;5081383;28;20048;-36
2023/04/06 03:08:16;;;;;;;7.63;4.93;;;;;;;4.73;79.65;100219.84;5066187;28;20415;-37
2023/04/06 03:10:44;;;;;;;7.07;4.70;;;;;;;4.72;79.28;100226.72;5095167;28;20041;-36
2023/04/06 03:13:11;;;;;;;20.42;6.30;;;;;;;4.73;79.36;100222.41;5083449;28;20051;-36
2023/04/06 03:15:52;;;;;;;8.90;4.68;;;;;;;4.76;79.51;100235.31;5049574;28;20137;-36
2023/04/06 03:18:24;;;;;;;12.60;5.10;;;;;;;4.76;79.63;100231.03;5084200;28;20047;-38
2023/04/06 03:20:53;;;;;;;8.60;4.90;;;;;;;4.78;79.14;100233.56;5088222;28;20042;-36
2023/04/06 03:23:23;;;;;;;8.00;5.32;;;;;;;4.78;79.17;100243.88;5087297;28;20039;-37
2023/04/06 03:25:53;;;;;;;7.88;4.75;;;;;;;4.78;79.14;100237.00;5068323;28;20043;-37
2023/04/06 03:28:20;;;;;;;11.60;6.13;;;;;;;4.79;79.41;100237.88;5087934;28;20056;-39
2023/04/06 03:30:53;;;;;;;9.98;5.38;;;;;;;4.63;79.17;100212.16;5060396;28;20040;-36
2023/04/06 03:33:36;;;;;;;10.52;5.18;;;;;;;4.85;78.81;100235.28;5070377;28;20059;-38
2023/04/06 03:36:02;;;;;;;16.55;5.13;;;;;;;4.88;79.22;100241.28;5053601;28;20048;-36
2023/04/06 03:38:32;;;;;;;8.10;5.22;;;;;;;4.90;78.77;100246.44;5086750;28;20040;-38
2023/04/06 03:40:58;;;;;;;6.95;4.60;;;;;;;4.93;78.66;100252.41;5088981;28;20046;-37
2023/04/06 03:43:26;;;;;;;12.48;4.68;;;;;;;4.95;78.81;100247.28;5086884;28;20063;-37
2023/04/06 03:45:53;;;;;;;11.88;5.32;;;;;;;4.68;78.62;100194.09;5086968;28;20041;-37
2023/04/06 03:48:19;;;;;;;7.68;4.90;;;;;;;4.92;78.54;100237.00;5047003;28;20078;-37
2023/04/06 03:50:45;;;;;;;9.40;4.50;;;;;;;5.06;78.20;100261.00;5091807;28;20141;-39
2023/04/06 03:53:11;;;;;;;8.00;4.70;;;;;;;5.07;78.08;100257.56;5073482;28;20063;-37
2023/04/06 03:55:37;;;;;;;10.40;4.82;;;;;;;4.99;78.12;100241.25;5091598;28;20514;-37
2023/04/06 03:58:03;;;;;;;13.20;5.30;;;;;;;5.13;77.27;100254.94;5064068;28;20630;-38
2023/04/06 04:00:29;;;;;;;7.63;4.60;;;;;;;5.17;77.36;100264.41;5071375;28;20093;-37
2023/04/06 04:02:55;;;;;;;6.13;4.30;;;;;;;5.19;77.49;100260.06;5078320;28;20032;-37
2023/04/06 04:05:25;;;;;;;8.35;4.57;;;;;;;5.21;77.35;100254.91;5090176;28;20090;-38
2023/04/06 04:07:52;;;;;;;11.05;4.40;;;;;;;5.13;76.57;100238.66;5075372;28;20048;-38
2023/04/06 04:10:21;;;;;;;11.65;4.80;;;;;;;5.28;76.99;100260.06;5053406;28;20041;-38
2023/04/06 04:12:47;;;;;;;9.70;4.18;;;;;;;5.34;76.57;100265.16;5065409;28;20040;-37
2023/04/06 04:15:13;;;;;;;6.75;4.35;;;;;;;5.41;76.98;100269.44;5072323;28;20045;-38
2023/04/06 04:17:39;;;;;;;8.43;5.05;;;;;;;5.46;76.15;100279.75;5088305;28;20526;-37
2023/04/06 04:20:06;;;;;;;7.70;4.82;;;;;;;5.51;76.27;100276.28;5077799;28;20040;-36
2023/04/06 04:22:32;;;;;;;7.18;4.47;;;;;;;5.57;76.21;100266.81;5086390;28;20045;-37
2023/04/06 04:24:59;;;;;;;7.80;4.38;;;;;;;5.66;76.29;100274.47;5065447;28;20130;-36
2023/04/06 04:27:26;;;;;;;11.20;4.68;;;;;;;5.76;75.91;100266.69;5052102;28;20045;-36
2023/04/06 04:29:52;;;;;;;7.70;4.78;;;;;;;5.81;75.33;100280.41;5091106;28;20032;-38
2023/04/06 04:32:18;;;;;;;8.88;4.18;;;;;;;5.85;75.32;100276.97;5088972;28;20716;-37
2023/04/06 04:34:46;;;;;;;10.00;5.05;;;;;;;5.85;74.96;100274.41;5088700;28;20040;-35
2023/04/06 04:37:21;;;;;;;10.18;4.40;;;;;;;5.91;75.02;100279.53;5083558;28;20047;-37
2023/04/06 04:39:52;;;;;;;11.35;4.72;;;;;;;5.93;74.28;100262.31;5087537;28;20427;-37
2023/04/06 04:42:18;;;;;;;12.13;4.57;;;;;;;6.01;73.86;100271.75;5087399;28;20093;-37
2023/04/06 04:44:49;;;;;;;8.77;4.68;;;;;;;5.90;74.04;100253.75;5072546;28;20579;-36
2023/04/06 04:47:25;;;;;;;10.07;4.80;;;;;;;6.08;73.69;100274.28;5085986;28;20339;-36
2023/04/06 04:49:52;;;;;;;9.90;4.55;;;;;;;6.12;73.50;100276.00;5076227;28;20477;-43
2023/04/06 04:52:22;;;;;;;10.63;4.53;;;;;;;6.12;72.95;100268.25;5077548;28;20074;-37
2023/04/06 04:54:56;;;;;;;11.27;4.40;;;;;;;6.21;72.35;100273.34;5079383;28;20047;-38
2023/04/06 04:57:27;;;;;;;7.85;4.03;;;;;;;6.12;72.84;100241.56;5079628;28;20142;-38
2023/04/06 04:59:53;;;;;;;7.10;3.85;;;;;;;6.36;72.07;100282.69;5096989;27;20031;-38
2023/04/06 05:02:19;;;;;;;10.40;4.60;;;;;;;6.44;71.58;100280.88;5085557;28;20054;-41
2023/04/06 05:05:00;;;;;;;10.82;4.68;;;;;;;6.53;71.60;100278.25;5071884;28;20072;-37
2023/04/06 05:07:28;;;;;;;11.02;4.30;;;;;;;6.62;71.52;100292.81;5085481;28;20083;-38
2023/04/06 05:09:57;;;;;;;5.63;3.85;;;;;;;6.67;70.68;100283.28;5093723;27;20071;-38
2023/04/06 05:12:27;;;;;;;5.45;3.97;;;;;;;6.72;70.81;100278.94;5086781;28;20067;-37
2023/04/06 05:15:07;;;;;;;6.53;4.03;;;;;;;6.79;70.21;100280.59;5068240;28;20051;-39
2023/04/06 05:17:33;;;;;;;7.90;4.22;;;;;;;6.85;70.07;100285.72;5084622;28;20040;-38
2023/04/06 05:20:00;;;;;;;9.13;3.88;;;;;;;6.94;70.07;100279.59;5078425;28;20119;-39
2023/04/06 05:22:28;;;;;;;7.68;4.03;;;;;;;7.02;69.43;100288.09;5034680;28;20085;-39
2023/04/06 05:25:08;;;;;;;9.32;4.28;;;;;;;6.97;68.88;100256.28;5067516;28;20044;-39
2023/04/06 05:27:34;;;;;;;11.15;4.38;;;;;;;7.22;69.11;100286.19;5062166;28;20044;-40
2023/04/06 05:30:06;;;;;;;8.95;3.80;;;;;;;7.32;68.33;100286.94;5092552;27;20599;-39
2023/04/06 05:32:38;;;;;;;9.32;4.20;;;;;;;7.42;67.96;100280.78;5064629;28;20040;-39
2023/04/06 05:35:04;;;;;;;8.50;4.05;;;;;;;7.50;67.69;100282.38;5067242;28;20051;-38
2023/04/06 05:37:30;;;;;;;8.23;4.10;;;;;;;7.57;67.22;100281.44;5087945;27;20072;-38
2023/04/06 05:39:58;;;;;;;9.52;3.95;;;;;;;7.52;66.86;100259.09;5052291;28;20041;-39
2023/04/06 05:42:24;;;;;;;13.27;3.78;;;;;;;7.80;66.47;100285.47;5108123;28;20051;-39
2023/04/06 05:44:56;;;;;;;9.82;4.60;;;;;;;7.91;66.47;100286.16;5080965;28;20044;-39
2023/04/06 05:47:22;;;;;;;7.80;3.97;;;;;;;8.06;66.23;100289.38;5087824;28;20488;-37
2023/04/06 05:49:55;;;;;;;17.77;4.18;;;;;;;8.25;65.73;100284.81;5083930;28;20127;-38
2023/04/06 05:52:34;;;;;;;13.30;4.10;;;;;;;8.44;65.19;100290.56;5084340;28;20543;-37
2023/04/06 05:55:00;;;;;;;11.93;3.80;;;;;;;8.66;64.95;100286.75;5067676;28;20131;-38
2023/04/06 05:57:28;;;;;;;13.10;3.60;;;;;;;9.01;64.06;100282.66;5083439;28;20059;-37
2023/04/06 05:59:55;;;;;;;9.60;3.20;;;;;;;9.41;62.92;100280.19;5049898;28;20108;-39
2023/04/06 06:02:23;;;;;;;13.25;3.78;;;;;;;9.89;61.68;100293.91;5055300;28;20036;-37
2023/04/06 06:04:51;;;;;;;12.05;4.60;;;;;;;10.28;60.34;100260.97;5057205;28;20380;-39
2023/04/06 06:07:18;;;;;;;9.43;4.18;;;;;;;11.09;58.96;100286.63;5051202;28;20036;-38
2023/04/06 06:09:57;;;;;;;14.07;4.72;;;;;;;11.84;57.46;100290.59;5083066;28;20093;-38
2023/04/06 06:12:29;;;;;;;10.90;4.25;;;;;;;12.65;55.28;100284.53;5089375;28;20043;-38
2023/04/06 06:14:56;;;;;;;14.88;4.32;;;;;;;13.47;53.46;100286.06;5077030;28;20499;-39
2023/04/06 06:17:23;;;;;;;13.20;5.50;;;;;;;14.26;51.61;100280.41;5082670;28;20055;-38
2023/04/06 06:19:50;;;;;;;11.75;4.22;;;;;;;15.09;50.38;100284.78;5077154;28;20062;-38
2023/04/06 06:22:16;;;;;;;17.52;4.57;;;;;;;15.81;48.49;100281.59;5060390;28;20519;-39
2023/04/06 06:24:45;;;;;;;9.23;3.50;;;;;;;16.46;46.50;100284.56;5093756;28;20040;-40
2023/04/06 06:27:12;;;;;;;8.98;3.88;;;;;;;17.17;44.76;100279.25;5075552;28;20507;-38
2023/04/06 06:29:38;;;;;;;10.10;3.55;;;;;;;17.93;42.96;100273.44;5086708;28;20460;-39
2023/04/06 06:32:04;;;;;;;9.98;4.05;;;;;;;18.48;41.63;100275.56;5086677;28;20047;-41
2023/04/06 06:34:31;;;;;;;9.38;3.97;;;;;;;19.06;40.06;100288.84;5065723;28;20040;-38
2023/04/06 06:37:00;;;;;;;12.53;5.23;;;;;;;19.67;38.75;100282.53;5088239;27;20043;-42
2023/04/06 06:39:26;;;;;;;11.30;4.75;;;;;;;20.36;37.20;100284.31;5075644;28;20299;-40
2023/04/06 06:41:54;;;;;;;9.40;5.57;;;;;;;20.87;35.76;100278.22;5052623;28;20050;-41
2023/04/06 06:44:23;;;;;;;7.35;4.72;;;;;;;21.44;34.87;100276.03;5051394;28;20060;-39
2023/04/06 06:46:50;;;;;;;10.50;4.45;;;;;;;21.95;33.74;100271.53;5049884;28;20040;-40
2023/04/06 06:49:18;;;;;;;13.95;5.13;;;;;;;22.44;32.98;100278.56;5098284;28;20040;-39
2023/04/06 06:51:44;;;;;;;13.98;4.78;;;;;;;22.87;32.31;100276.22;5086341;28;20169;-39
2023/04/06 06:54:10;;;;;;;10.77;4.53;;;;;;;23.37;31.25;100274.13;5070326;28;20035;-40
2023/04/06 06:56:37;;;;;;;8.70;4.60;;;;;;;23.80;30.38;100275.13;5085720;28;20035;-40
2023/04/06 06:59:04;;;;;;;12.93;4.97;;;;;;;24.26;29.82;100274.94;5050394;28;20051;-40
2023/04/06 07:01:32;;;;;;;12.55;4.93;;;;;;;24.75;29.07;100276.22;5083248;28;20048;-39
2023/04/06 07:03:58;;;;;;;10.40;4.30;;;;;;;25.21;28.21;100276.69;5051062;28;20488;-38
2023/04/06 07:06:24;;;;;;;9.65;4.53;;;;;;;25.65;27.57;100272.88;5074370;28;20182;-39
2023/04/06 07:08:50;;;;;;;7.85;4.45;;;;;;;26.05;26.73;100237.38;5073162;28;20036;-39
2023/04/06 07:11:16;;;;;;;10.23;4.32;;;;;;;26.66;26.15;100272.66;5074480;28;20046;-39
2023/04/06 07:13:42;;;;;;;12.90;4.10;;;;;;;27.03;25.63;100275.47;5072868;28;20040;-37
2023/04/06 07:16:10;;;;;;;23.13;6.28;;;;;;;27.39;25.11;100263.13;5090330;28;20145;-39
2023/04/06 07:18:37;;;;;;;13.38;4.55;;;;;;;27.86;24.38;100273.78;5072620;28;20511;-39
2023/04/06 07:21:04;;;;;;;12.93;4.50;;;;;;;28.32;23.82;100272.81;5089871;28;20051;-42
2023/04/06 07:23:30;;;;;;;10.82;3.83;;;;;;;28.71;23.26;100274.19;5090385;28;20127;-39
2023/04/06 07:25:56;;;;;;;12.55;3.75;;;;;;;29.03;22.68;100269.13;5078077;28;20155;-39
2023/04/06 07:28:22;;;;;;;13.52;4.50;;;;;;;29.27;22.34;100248.84;5090088;28;20488;-41
2023/04/06 07:30:48;;;;;;;5.63;3.83;;;;;;;29.96;21.90;100272.84;5073731;28;20051;-40
2023/04/06 07:33:14;;;;;;;9.07;4.10;;;;;;;30.27;21.41;100260.53;5073631;28;20535;-41
2023/04/06 07:35:41;;;;;;;8.88;4.15;;;;;;;30.59;21.24;100266.97;5090220;28;20105;-40
2023/04/06 07:38:07;;;;;;;30.45;5.10;;;;;;;30.76;20.68;100270.50;5090189;28;20028;-40
2023/04/06 07:40:35;;;;;;;10.68;3.83;;;;;;;31.13;20.38;100265.47;5090631;28;20044;-43
2023/04/06 07:43:01;;;;;;;9.98;3.85;;;;;;;31.38;20.36;100266.25;5072965;28;20055;-40
2023/04/06 07:45:28;;;;;;;12.40;3.92;;;;;;;31.65;19.65;100247.03;5073438;28;20043;-41
2023/04/06 07:47:55;;;;;;;8.95;4.78;;;;;;;31.97;19.53;100251.41;5074688;28;20098;-39
2023/04/06 07:50:23;;;;;;;8.18;3.75;;;;;;;32.04;19.32;100263.13;5072983;28;20122;-39
2023/04/06 07:52:51;;;;;;;8.87;3.50;;;;;;;32.14;19.09;100265.63;5073219;28;20056;-38
2023/04/06 07:55:17;;;;;;;8.55;4.45;;;;;;;32.44;19.07;100254.00;5090095;28;20044;-41
2023/04/06 07:57:42;;;;;;;7.05;4.70;;;;;;;32.54;18.71;100238.44;5089471;28;20040;-40
2023/04/06 08:00:09;;;;;;;7.68;3.65;;;;;;;32.61;18.61;100249.31;5074282;28;20059;-39
2023/04/06 08:02:38;;;;;;;7.68;3.88;;;;;;;32.49;18.52;100248.06;5072935;28;20131;-40
2023/04/06 08:05:05;;;;;;;12.63;3.90;;;;;;;32.37;18.65;100253.03;5072929;28;20178;-40
2023/04/06 08:07:31;;;;;;;4.87;3.93;;;;;;;32.36;18.37;100222.59;5073159;28;20040;-39
2023/04/06 08:09:57;;;;;;;13.60;4.05;;;;;;;32.57;18.09;100250.69;5073862;28;20101;-39
2023/04/06 08:12:23;;;;;;;10.65;4.38;;;;;;;32.43;18.22;100232.63;5056148;28;20116;-41
2023/04/06 08:14:49;;;;;;;6.45;3.60;;;;;;;32.88;17.87;100245.22;5072511;28;20049;-41
2023/04/06 08:17:15;;;;;;;11.32;3.60;;;;;;;33.03;17.57;100251.47;5069554;28;20055;-39
2023/04/06 08:19:43;;;;;;;6.55;3.50;;;;;;;33.18;17.29;100249.69;5052060;28;20113;-38
2023/04/06 08:22:10;;;;;;;8.43;3.40;;;;;;;33.24;17.40;100248.13;5070373;28;20044;-40
2023/04/06 08:24:36;;;;;;;7.93;3.50;;;;;;;33.20;17.21;100247.63;5072962;28;20081;-42
2023/04/06 08:27:02;;;;;;;9.70;3.40;;;;;;;33.33;17.02;100245.16;5070355;28;20507;-40
2023/04/06 08:29:28;;;;;;;24.17;5.70;;;;;;;33.31;16.69;100252.56;5051691;28;20048;-40
2023/04/06 08:31:54;;;;;;;12.90;5.43;;;;;;;33.59;16.36;100233.88;5070323;28;20036;-46
2023/04/06 08:34:21;;;;;;;22.08;3.92;;;;;;;33.76;16.23;100235.34;5069321;28;20048;-39
2023/04/06 08:36:47;;;;;;;16.80;5.85;;;;;;;33.92;16.36;100240.53;5069349;28;20530;-42
2023/04/06 08:39:13;;;;;;;15.70;3.92;;;;;;;33.89;16.06;100237.38;5085421;28;20044;-38
2023/04/06 08:41:42;;;;;;;7.60;4.38;;;;;;;33.99;16.10;100214.47;5052346;28;20045;-39
2023/04/06 08:44:08;;;;;;;6.78;3.35;;;;;;;34.33;15.77;100231.88;5052304;28;20067;-38
2023/04/06 08:46:35;;;;;;;5.63;3.00;;;;;;;34.40;15.66;100230.06;5068756;28;20109;-39
2023/04/06 08:49:02;;;;;;;10.18;3.33;;;;;;;34.77;15.38;100234.38;5054326;28;20037;-39
2023/04/06 08:51:30;;;;;;;11.23;3.40;;;;;;;35.14;15.08;100233.19;5085739;28;20045;-38
2023/04/06 08:53:58;;;;;;;9.15;2.80;;;;;;;35.42;15.22;100223.19;5070092;28;20457;-39
2023/04/06 08:56:27;;;;;;;;;;;;;;;35.54;15.26;100228.88;5086147;28;20051;-39
2023/04/06 08:58:54;;;;;;;10.27;3.45;;;;;;;35.54;15.08;100224.28;5085004;28;20015;-37
2023/04/06 09:01:22;;;;;;;12.05;2.75;;;;;;;35.45;14.70;100217.38;5085845;28;20044;-39
2023/04/06 09:03:50;;;;;;;9.23;3.10;;;;;;;35.34;14.36;100212.53;5085746;28;20131;-38
2023/04/06 09:06:16;;;;;;;11.90;3.20;;;;;;;35.27;14.81;100222.50;5068735;28;20093;-39
2023/04/06 09:08:42;;;;;;;13.77;3.00;;;;;;;35.32;14.38;100192.16;5085377;28;20105;-38
2023/04/06 09:11:08;;;;;;;8.38;2.80;;;;;;;35.91;13.97;100212.16;5065363;28;20036;-40
2023/04/06 09:13:55;;;;;;;13.65;3.70;;;;;;;35.96;13.74;100219.69;5075847;28;20525;-39
2023/04/06 09:16:22;;;;;;;6.57;3.10;;;;;;;36.07;14.25;100219.09;5068687;28;20032;-40
2023/04/06 09:18:49;;;;;;;12.20;3.33;;;;;;;36.21;13.93;100215.41;5085203;28;20040;-39
2023/04/06 09:21:19;;;;;;;6.10;3.25;;;;;;;36.41;13.82;100221.69;5050780;28;20138;-40
2023/04/06 09:23:44;;;;;;;8.82;3.35;;;;;;;36.45;13.71;100208.56;5069372;28;20033;-39
2023/04/06 09:26:15;;;;;;;9.85;3.25;;;;;;;36.74;12.90;100210.06;5037831;28;20173;-39
2023/04/06 09:28:48;;;;;;;8.10;3.25;;;;;;;36.95;12.92;100219.84;5065865;28;20619;-39
2023/04/06 09:31:15;;;;;;;12.13;3.50;;;;;;;37.28;12.89;100226.88;5066773;28;20047;-40
2023/04/06 09:33:43;;;;;;;10.30;2.60;;;;;;;37.43;12.60;100220.34;5069318;28;20644;-39
2023/04/06 09:36:09;;;;;;;;;;;;;;;37.33;12.66;100216.22;5051749;28;20040;-39
2023/04/06 09:38:52;;;;;;;10.13;2.83;;;;;;;37.39;12.89;100219.97;5101291;28;19920;-40
2023/04/06 09:41:36;;;;;;;12.00;4.15;;;;;;;37.55;12.49;100203.22;5068059;28;20514;-40
2023/04/06 09:44:06;;;;;;;13.50;3.15;;;;;;;37.38;12.61;100215.56;5068329;28;20440;-38
2023/04/06 09:46:34;;;;;;;9.90;2.75;;;;;;;37.51;12.53;100209.28;5069063;28;20512;-39
2023/04/06 09:49:02;;;;;;;10.50;3.08;;;;;;;37.32;12.88;100211.00;5103402;28;20043;-42
2023/04/06 09:51:29;;;;;;;;;;;;;;;37.47;12.61;100214.31;5071536;28;20070;-39
2023/04/06 09:53:57;;;;;;;;;;;;;;;37.66;12.44;100202.56;5068336;28;19916;-39
2023/04/06 09:56:25;;;;;;;20.00;3.22;;;;;;;37.68;12.23;100211.34;5067855;28;20014;-39
2023/04/06 09:58:55;;;;;;;11.80;3.30;;;;;;;37.60;11.99;100195.28;5055840;28;20052;-39
2023/04/06 10:01:23;;;;;;;10.60;3.00;;;;;;;37.83;12.47;100204.78;5067732;28;20102;-40
2023/04/06 10:03:55;;;;;;;10.63;2.85;;;;;;;38.09;12.04;100210.94;5067261;28;20044;-40
2023/04/06 10:06:23;;;;;;;11.18;2.95;;;;;;;38.27;11.93;100207.44;5067876;28;20051;-41
2023/04/06 10:08:51;;;;;;;11.65;3.05;;;;;;;38.39;11.80;100204.84;5068540;28;20044;-39
2023/04/06 10:11:18;;;;;;;9.35;4.47;;;;;;;38.54;11.93;100206.22;5068515;28;20379;-40
2023/04/06 10:13:47;;;;;;;8.70;3.33;;;;;;;38.59;11.30;100211.00;5050231;28;20040;-41
2023/04/06 10:16:14;;;;;;;11.07;3.13;;;;;;;38.01;11.76;100205.75;5068345;28;20055;-40
2023/04/06 10:18:45;;;;;;;8.00;2.90;;;;;;;37.78;11.92;100189.16;5068562;28;20117;-40
2023/04/06 10:21:17;;;;;;;7.25;3.42;;;;;;;38.22;11.80;100198.28;5066879;28;20055;-40
2023/04/06 10:24:06;;;;;;;10.38;5.13;;;;;;;38.26;11.75;100197.66;5017235;28;20507;-41
2023/04/06 10:26:32;;;;;;;10.25;4.20;;;;;;;38.23;11.87;100200.78;5102948;28;20086;-40
2023/04/06 10:29:03;;;;;;;16.70;5.00;;;;;;;38.49;11.44;100197.06;5078137;28;20032;-39
2023/04/06 10:31:29;;;;;;;8.90;3.92;;;;;;;38.54;11.32;100205.38;5068025;28;20384;-40
2023/04/06 10:34:00;;;;;;;13.48;3.22;;;;;;;38.13;11.67;100192.28;5083761;28;20143;-40
2023/04/06 10:36:28;;;;;;;9.93;2.95;;;;;;;38.12;11.69;100206.94;5067982;28;20054;-40
2023/04/06 10:39:05;;;;;;;7.28;3.13;;;;;;;37.77;11.75;100202.94;5083068;28;20109;-40
2023/04/06 10:41:35;;;;;;;12.80;3.17;;;;;;;37.97;11.68;100196.34;5050081;28;20081;-39
2023/04/06 10:44:01;;;;;;;8.23;2.78;;;;;;;38.02;11.76;100190.28;5065908;28;20523;-39
2023/04/06 10:46:29;;;;;;;8.80;3.17;;;;;;;38.24;12.04;100193.47;5066353;28;20044;-39
2023/04/06 10:48:56;;;;;;;12.82;2.97;;;;;;;38.43;11.71;100195.19;5085952;28;20104;-39
2023/04/06 10:51:27;;;;;;;10.80;3.55;;;;;;;38.28;11.96;100172.97;5080761;28;20044;-40
2023/04/06 10:53:54;;;;;;;7.93;2.85;;;;;;;38.47;11.58;100193.75;5066374;28;20446;-40
2023/04/06 10:56:22;;;;;;;9.57;2.80;;;;;;;38.24;11.64;100191.59;5066462;28;20055;-39
2023/04/06 10:58:52;;;;;;;5.22;3.65;;;;;;;38.15;11.77;100190.22;5067714;28;20040;-41
2023/04/06 11:01:22;;;;;;;6.07;2.53;;;;;;;38.00;11.65;100167.97;5083144;28;20044;-39
2023/04/06 11:03:54;;;;;;;6.60;2.70;;;;;;;37.97;11.81;100190.06;5066517;28;20600;-39
2023/04/06 11:06:25;;;;;;;12.82;2.80;;;;;;;38.14;11.53;100185.81;5049551;28;20206;-39
2023/04/06 11:08:51;;;;;;;10.18;2.70;;;;;;;38.22;11.67;100190.97;5067946;28;20058;-38
2023/04/06 11:11:22;;;;;;;9.85;2.90;;;;;;;38.38;11.65;100182.28;5075457;28;20097;-39
2023/04/06 11:13:59;;;;;;;33.50;4.38;;;;;;;38.12;11.72;100171.63;5077757;28;20413;-40
2023/04/06 11:16:32;;;;;;;10.87;3.40;;;;;;;38.41;11.92;100187.28;5072046;28;20051;-40
2023/04/06 11:19:03;;;;;;;8.80;3.45;;;;;;;38.67;11.60;100182.72;5066215;28;20044;-40
2023/04/06 11:21:46;;;;;;;10.27;4.80;;;;;;;38.70;11.40;100184.97;5067095;28;20647;-41
2023/04/06 11:24:17;;;;;;;10.82;6.00;;;;;;;38.62;11.56;100179.81;5046771;28;20044;-40
2023/04/06 11:26:50;;;;;;;5.97;3.75;;;;;;;38.60;11.43;100193.63;5074556;28;20474;-39
2023/04/06 11:29:17;;;;;;;9.60;3.30;;;;;;;38.68;11.61;100171.59;5076600;28;20045;-41
2023/04/06 11:31:49;;;;;;;10.77;3.08;;;;;;;38.92;11.34;100181.66;5075141;28;20036;-40
2023/04/06 11:34:23;;;;;;;10.20;3.83;;;;;;;38.82;11.49;100173.16;5081808;28;20481;-41